Ammansville, Texas
Current Conditions -  °F | °C
As of 10:55 AM on Saturday 25 Oct 2014 (Local Time) from K3T5 Reporting Station
Clear Clear  
Wind Chill: 78°   Ceiling: Unl
Heat Index: 80°   Visibility: 10mi
Dew Point: 62°   Wind: 6mph
Humidity: 58%   Direction: 230°SW
Pressure: 30.18"   Gusts: NA
Location:  29.8569°N, 96.9311°W
Report Text: K3T5 251555Z AUTO 23005KT 10SM CLR 26/17 A3018 RMK AO2 T02560167
Loading
Personal Weather Stations






























Interactive Weather Map
Tropical Storm Tracking
New forecast layout! Learn more

10-Day Weather Forecast

Advertisements
Track Severe Weather on mobile